createdAt,value
2023-04-18T00:00:39.122Z,64.98
2023-04-18T00:05:50.151Z,62.56
2023-04-18T00:10:52.827Z,61.46
2023-04-18T00:15:55.366Z,59.97
2023-04-18T00:20:57.901Z,56.84
2023-04-18T00:26:00.983Z,58.58
2023-04-18T00:31:03.627Z,60.28
2023-04-18T00:36:06.550Z,67.08
2023-04-18T00:41:09.567Z,68.37
2023-04-18T00:46:12.073Z,64.94
2023-04-18T00:51:15.370Z,62.73
2023-04-18T00:56:17.955Z,61.14
2023-04-18T01:01:20.514Z,60.10
2023-04-18T01:06:23.640Z,59.65
2023-04-18T01:11:26.136Z,57.70
2023-04-18T01:16:29.750Z,61.56
2023-04-18T01:21:36.031Z,66.92
2023-04-18T01:26:38.655Z,65.12
2023-04-18T01:31:41.341Z,64.28
2023-04-18T01:36:44.224Z,62.32
2023-04-18T01:41:47.036Z,61.66
2023-04-18T01:46:49.545Z,61.45
2023-04-18T01:51:52.134Z,61.69
2023-04-18T01:56:54.599Z,60.61
2023-04-18T02:01:58.047Z,60.36
2023-04-18T02:07:00.683Z,62.56
2023-04-18T02:12:03.281Z,65.66
2023-04-18T02:17:05.901Z,63.15
2023-04-18T02:22:08.419Z,63.08
2023-04-18T02:27:11.754Z,62.85
2023-04-18T02:32:17.225Z,62.77
2023-04-18T02:37:19.701Z,62.21
2023-04-18T02:42:22.179Z,61.33
2023-04-18T02:47:25.915Z,61.45
2023-04-18T02:52:29.133Z,61.03
2023-04-18T02:57:31.603Z,61.32
2023-04-18T03:02:34.345Z,61.23
2023-04-18T03:07:37.014Z,60.49
2023-04-18T03:12:39.752Z,60.73
2023-04-18T03:17:42.360Z,60.96
2023-04-18T03:22:44.913Z,60.67
2023-04-18T03:27:47.661Z,60.79
2023-04-18T03:32:50.158Z,61.70
2023-04-18T03:37:52.640Z,61.55
2023-04-18T03:42:55.119Z,61.52
2023-04-18T03:47:57.667Z,61.45
2023-04-18T03:53:00.862Z,61.03
2023-04-18T03:58:03.408Z,61.18
2023-04-18T04:03:07.148Z,60.80
2023-04-18T04:08:09.874Z,60.78
2023-04-18T04:13:12.338Z,60.16
2023-04-18T04:18:14.796Z,58.82
2023-04-18T04:23:17.268Z,60.26
2023-04-18T04:28:24.512Z,66.29
2023-04-18T04:33:33.097Z,64.51
2023-04-18T04:38:38.324Z,62.57
2023-04-18T04:43:41.206Z,62.11
2023-04-18T04:48:43.832Z,60.65
2023-04-18T04:53:46.811Z,58.43
2023-04-18T04:58:50.012Z,57.83
2023-04-18T05:03:53.282Z,64.98
2023-04-18T05:08:57.432Z,65.08
2023-04-18T05:13:59.860Z,63.06
2023-04-18T05:19:02.305Z,61.06
2023-04-18T05:24:04.840Z,60.24
2023-04-18T05:29:07.294Z,59.75
2023-04-18T05:34:09.850Z,56.62
2023-04-18T05:39:12.337Z,59.53
2023-04-18T05:44:16.067Z,64.84
2023-04-18T05:49:19.319Z,63.42
2023-04-18T05:54:22.063Z,58.36
2023-04-18T05:59:26.646Z,58.35
2023-04-18T06:04:29.995Z,62.93
2023-04-18T06:09:32.620Z,60.19
2023-04-18T06:14:35.317Z,59.16
2023-04-18T06:19:38.406Z,63.35
2023-04-18T06:24:41.160Z,53.16
2023-04-18T06:29:43.824Z,50.01
2023-04-18T06:34:46.345Z,49.02
2023-04-18T06:39:48.915Z,48.47
2023-04-18T06:44:51.479Z,50.88
2023-04-18T06:49:54.019Z,50.10
2023-04-18T06:54:56.694Z,46.81
2023-04-18T06:59:59.168Z,45.24
2023-04-18T07:05:01.847Z,51.81
2023-04-18T07:10:06.456Z,50.04
2023-04-18T07:15:09.723Z,50.48
2023-04-18T07:20:14.331Z,47.74
2023-04-18T07:25:17.050Z,48.57
2023-04-18T07:30:19.562Z,43.24
2023-04-18T07:35:22.132Z,44.23
2023-04-18T07:40:25.288Z,43.59
2023-04-18T07:45:27.759Z,40.72
2023-04-18T07:50:30.499Z,39.49
2023-04-18T07:55:33.159Z,42.07
2023-04-18T08:00:39.213Z,43.50
2023-04-18T08:05:42.843Z,42.50
2023-04-18T08:10:45.939Z,46.63
2023-04-18T08:15:48.558Z,47.42
2023-04-18T08:20:51.021Z,46.28
2023-04-18T08:25:53.474Z,48.41
2023-04-18T08:30:56.546Z,48.46
2023-04-18T08:35:59.150Z,50.71
2023-04-18T08:41:01.724Z,49.41
2023-04-18T08:46:04.671Z,49.77
2023-04-18T08:51:07.262Z,50.36
2023-04-18T08:56:10.694Z,46.58
2023-04-18T09:01:13.677Z,48.43
2023-04-18T09:06:19.164Z,48.98
2023-04-18T09:11:28.807Z,50.28
2023-04-18T09:16:47.073Z,50.23
2023-04-18T09:22:00.846Z,49.09
2023-04-18T10:01:30.863Z,45.84
2023-04-18T10:06:35.016Z,44.63
2023-04-18T10:11:37.989Z,45.32
2023-04-18T10:16:42.423Z,44.99
2023-04-18T10:21:54.366Z,45.37
2023-04-18T10:26:57.837Z,44.93
2023-04-18T10:32:06.047Z,45.53
2023-04-18T10:37:08.663Z,45.72
2023-04-18T10:42:11.172Z,45.14
2023-04-18T10:47:16.659Z,43.93
2023-04-18T10:52:19.229Z,45.00
2023-04-18T10:57:21.916Z,45.67
2023-04-18T11:02:33.315Z,45.67
2023-04-18T11:07:44.999Z,45.29
2023-04-18T11:12:47.970Z,44.99
2023-04-18T11:18:06.683Z,44.98
2023-04-18T11:23:18.104Z,44.32
2023-04-18T11:28:21.947Z,43.29
2023-04-18T11:33:28.218Z,44.28
2023-04-18T11:38:31.042Z,44.64
2023-04-18T11:43:33.593Z,44.65
2023-04-18T11:48:40.536Z,44.78
2023-04-18T11:53:42.978Z,45.09
2023-04-18T11:58:45.502Z,44.94
2023-04-18T12:04:16.702Z,45.11
2023-04-18T12:09:22.240Z,44.56
2023-04-18T12:14:24.861Z,45.03
2023-04-18T12:19:27.998Z,45.24
2023-04-18T12:24:32.282Z,45.52
2023-04-18T12:29:35.151Z,45.77
2023-04-18T12:34:37.628Z,45.12
2023-04-18T12:39:40.204Z,44.90
2023-04-18T12:44:42.717Z,45.23
2023-04-18T12:49:45.381Z,45.93
2023-04-18T12:54:47.903Z,45.82
2023-04-18T12:59:50.469Z,45.77
2023-04-18T13:04:52.979Z,45.88
2023-04-18T13:09:55.776Z,45.76
2023-04-18T13:14:59.513Z,46.15
2023-04-18T13:20:04.792Z,45.17
2023-04-18T13:25:10.307Z,44.93
2023-04-18T13:30:13.352Z,45.13
2023-04-18T13:35:16.243Z,46.07
2023-04-18T13:40:18.813Z,46.69
2023-04-18T13:45:21.916Z,47.15
2023-04-18T13:50:25.588Z,47.66
2023-04-18T13:55:28.836Z,48.53
2023-04-18T14:00:31.720Z,48.78
2023-04-18T14:05:35.428Z,49.60
2023-04-18T14:10:40.315Z,50.32
2023-04-18T14:15:43.425Z,50.65
2023-04-18T14:20:46.978Z,51.34
2023-04-18T14:25:49.545Z,51.34
2023-04-18T14:30:55.205Z,51.66
2023-04-18T14:35:57.749Z,51.49
2023-04-18T14:41:01.151Z,51.28
2023-04-18T14:46:03.718Z,51.75
2023-04-18T14:51:07.979Z,52.47
2023-04-18T14:56:10.528Z,52.34
2023-04-18T15:01:17.052Z,53.13
2023-04-18T15:06:19.624Z,53.14
2023-04-18T15:11:23.110Z,53.39
2023-04-18T15:16:26.547Z,53.29
2023-04-18T15:21:29.168Z,53.29
2023-04-18T15:26:33.261Z,54.76
2023-04-18T15:31:38.425Z,54.31
2023-04-18T15:36:41.650Z,55.07
2023-04-18T15:41:44.669Z,55.37
2023-04-18T15:46:48.953Z,55.54
2023-04-18T15:51:51.530Z,55.79
2023-04-18T15:56:54.000Z,56.05
2023-04-18T16:01:56.875Z,56.03
2023-04-18T16:06:59.610Z,56.50
2023-04-18T16:12:03.206Z,56.51
2023-04-18T16:17:05.961Z,56.73
2023-04-18T16:22:10.446Z,56.92
2023-04-18T16:27:13.118Z,57.27
2023-04-18T16:32:15.726Z,57.44
2023-04-18T16:37:18.495Z,58.66
2023-04-18T16:42:21.426Z,58.55
2023-04-18T16:47:24.306Z,59.44
2023-04-18T16:52:26.866Z,60.66
2023-04-18T16:57:29.433Z,60.57
2023-04-18T17:02:33.392Z,61.95
2023-04-18T17:07:36.755Z,58.34
2023-04-18T17:12:39.344Z,58.66
2023-04-18T17:17:42.071Z,59.78
2023-04-18T17:22:53.235Z,60.14
2023-04-18T17:27:57.213Z,60.94
2023-04-18T17:32:59.810Z,61.97
2023-04-18T17:38:02.574Z,57.85
2023-04-18T17:43:07.698Z,58.17
2023-04-18T17:48:10.439Z,59.05
2023-04-18T17:53:13.391Z,59.68
2023-04-18T17:58:16.860Z,60.27
2023-04-18T18:03:20.084Z,60.66
2023-04-18T18:08:23.083Z,61.15
2023-04-18T18:13:25.712Z,61.52
2023-04-18T18:18:31.463Z,64.27
2023-04-18T18:23:34.828Z,66.31
2023-04-18T18:28:38.195Z,63.75
2023-04-18T18:33:43.997Z,55.29
2023-04-18T18:38:47.119Z,54.98
2023-04-18T18:43:50.573Z,57.02
2023-04-18T18:48:53.385Z,58.47
2023-04-18T18:53:57.072Z,59.32
2023-04-18T18:58:59.551Z,59.99
2023-04-18T19:04:03.649Z,60.75
2023-04-18T19:09:07.047Z,61.22
2023-04-18T19:14:10.411Z,64.41
2023-04-18T19:19:13.593Z,67.39
2023-04-18T19:24:17.269Z,62.27
2023-04-18T19:29:22.320Z,55.44
2023-04-18T19:34:25.226Z,55.01
2023-04-18T19:39:28.079Z,57.45
2023-04-18T19:44:31.202Z,57.81
2023-04-18T19:49:34.019Z,59.63
2023-04-18T19:54:36.746Z,59.47
2023-04-18T19:59:39.223Z,59.76
2023-04-18T20:04:43.872Z,62.31
2023-04-18T20:09:48.826Z,64.15
2023-04-18T20:14:52.229Z,57.55
2023-04-18T20:19:57.074Z,58.37
2023-04-18T20:25:00.901Z,59.61
2023-04-18T20:30:05.011Z,60.62
2023-04-18T20:35:08.550Z,63.45
2023-04-18T20:40:11.500Z,65.69
2023-04-18T20:45:14.090Z,61.09
2023-04-18T20:50:18.222Z,54.15
2023-04-18T20:55:21.286Z,54.86
2023-04-18T21:00:24.095Z,57.63
2023-04-18T21:05:26.660Z,59.06
2023-04-18T21:10:29.223Z,59.59
2023-04-18T21:15:32.411Z,59.95
2023-04-18T21:20:36.539Z,60.51
2023-04-18T21:25:39.048Z,61.63
2023-04-18T21:30:41.619Z,67.92
2023-04-18T21:35:44.148Z,67.35
2023-04-18T21:40:46.618Z,62.24
2023-04-18T21:45:49.101Z,55.35
2023-04-18T21:50:57.636Z,54.33
2023-04-18T21:56:00.820Z,55.08
2023-04-18T22:01:03.513Z,56.54
2023-04-18T22:06:06.235Z,58.64
2023-04-18T22:11:12.332Z,59.71
2023-04-18T22:16:15.232Z,60.09
2023-04-18T22:21:17.835Z,60.54
2023-04-18T22:26:20.610Z,65.54
2023-04-18T22:31:23.222Z,67.67
2023-04-18T22:36:27.463Z,61.83
2023-04-18T22:41:29.973Z,59.86
2023-04-18T22:46:33.006Z,54.46
2023-04-18T22:51:35.605Z,54.13
2023-04-18T22:56:38.081Z,57.26
2023-04-18T23:01:41.350Z,58.63
2023-04-18T23:06:44.303Z,60.80
2023-04-18T23:11:46.779Z,65.03
2023-04-18T23:16:49.464Z,65.25
2023-04-18T23:21:52.882Z,62.67
2023-04-18T23:26:55.373Z,55.91
2023-04-18T23:31:57.993Z,54.96
2023-04-18T23:37:00.807Z,56.01
2023-04-18T23:42:03.307Z,58.77
2023-04-18T23:47:06.235Z,59.12
2023-04-18T23:52:08.779Z,60.66
2023-04-18T23:57:11.232Z,65.28
